sensor_id;sensor_type;location;lat;lon;timestamp;P1;durP1;ratioP1;P2;durP2;ratioP2
11616;SDS011;5864;52.998;9.068;2022-10-31T00:00:42;25.63;;;15.80;;
11616;SDS011;5864;52.998;9.068;2022-10-31T00:03:09;22.43;;;15.50;;
11616;SDS011;5864;52.998;9.068;2022-10-31T00:05:40;27.00;;;16.17;;
11616;SDS011;5864;52.998;9.068;2022-10-31T00:08:07;23.97;;;16.00;;
11616;SDS011;5864;52.998;9.068;2022-10-31T00:10:36;26.60;;;17.13;;
11616;SDS011;5864;52.998;9.068;2022-10-31T00:13:05;29.23;;;17.20;;
11616;SDS011;5864;52.998;9.068;2022-10-31T00:15:33;22.77;;;15.77;;
11616;SDS011;5864;52.998;9.068;2022-10-31T00:18:01;24.03;;;16.40;;
11616;SDS011;5864;52.998;9.068;2022-10-31T00:20:28;24.33;;;16.53;;
11616;SDS011;5864;52.998;9.068;2022-10-31T00:22:57;23.87;;;17.23;;
11616;SDS011;5864;52.998;9.068;2022-10-31T00:25:25;26.83;;;17.53;;
11616;SDS011;5864;52.998;9.068;2022-10-31T00:27:53;28.03;;;18.63;;
11616;SDS011;5864;52.998;9.068;2022-10-31T00:30:21;28.00;;;17.00;;
11616;SDS011;5864;52.998;9.068;2022-10-31T00:32:49;26.63;;;18.03;;
11616;SDS011;5864;52.998;9.068;2022-10-31T00:35:16;27.53;;;17.40;;
11616;SDS011;5864;52.998;9.068;2022-10-31T00:37:43;26.03;;;19.37;;
11616;SDS011;5864;52.998;9.068;2022-10-31T00:40:11;28.70;;;18.67;;
11616;SDS011;5864;52.998;9.068;2022-10-31T00:42:38;29.60;;;19.53;;
11616;SDS011;5864;52.998;9.068;2022-10-31T00:45:07;28.60;;;17.93;;
11616;SDS011;5864;52.998;9.068;2022-10-31T00:47:36;26.00;;;18.00;;
11616;SDS011;5864;52.998;9.068;2022-10-31T00:50:04;27.93;;;18.40;;
11616;SDS011;5864;52.998;9.068;2022-10-31T00:52:32;27.23;;;18.63;;
11616;SDS011;5864;52.998;9.068;2022-10-31T00:55:00;27.87;;;19.40;;
11616;SDS011;5864;52.998;9.068;2022-10-31T00:57:27;25.97;;;18.13;;
11616;SDS011;5864;52.998;9.068;2022-10-31T00:59:54;30.23;;;19.23;;
11616;SDS011;5864;52.998;9.068;2022-10-31T01:02:21;26.80;;;18.37;;
11616;SDS011;5864;52.998;9.068;2022-10-31T01:04:50;32.40;;;18.93;;
11616;SDS011;5864;52.998;9.068;2022-10-31T01:07:17;31.97;;;20.63;;
11616;SDS011;5864;52.998;9.068;2022-10-31T01:09:45;28.63;;;19.57;;
11616;SDS011;5864;52.998;9.068;2022-10-31T01:12:12;29.20;;;19.13;;
11616;SDS011;5864;52.998;9.068;2022-10-31T01:14:42;30.10;;;19.03;;
11616;SDS011;5864;52.998;9.068;2022-10-31T01:17:09;28.67;;;19.60;;
11616;SDS011;5864;52.998;9.068;2022-10-31T01:19:37;25.90;;;19.20;;
11616;SDS011;5864;52.998;9.068;2022-10-31T01:22:05;31.07;;;19.37;;
11616;SDS011;5864;52.998;9.068;2022-10-31T01:24:33;29.80;;;19.13;;
11616;SDS011;5864;52.998;9.068;2022-10-31T01:27:00;30.43;;;20.10;;
11616;SDS011;5864;52.998;9.068;2022-10-31T01:29:28;31.50;;;19.70;;
11616;SDS011;5864;52.998;9.068;2022-10-31T01:31:55;26.03;;;17.87;;
11616;SDS011;5864;52.998;9.068;2022-10-31T01:34:22;27.97;;;19.27;;
11616;SDS011;5864;52.998;9.068;2022-10-31T01:36:50;30.47;;;20.43;;
11616;SDS011;5864;52.998;9.068;2022-10-31T01:39:19;31.03;;;19.33;;
11616;SDS011;5864;52.998;9.068;2022-10-31T01:41:47;30.23;;;20.17;;
11616;SDS011;5864;52.998;9.068;2022-10-31T01:47:28;30.77;;;19.43;;
11616;SDS011;5864;52.998;9.068;2022-10-31T01:50:00;29.00;;;20.07;;
11616;SDS011;5864;52.998;9.068;2022-10-31T01:52:33;32.80;;;19.60;;
11616;SDS011;5864;52.998;9.068;2022-10-31T01:55:07;30.53;;;19.40;;
11616;SDS011;5864;52.998;9.068;2022-10-31T01:57:39;30.57;;;19.07;;
11616;SDS011;5864;52.998;9.068;2022-10-31T02:00:08;27.87;;;18.90;;
11616;SDS011;5864;52.998;9.068;2022-10-31T02:02:37;28.60;;;19.77;;
11616;SDS011;5864;52.998;9.068;2022-10-31T02:05:05;29.43;;;19.53;;
11616;SDS011;5864;52.998;9.068;2022-10-31T02:07:36;31.03;;;18.83;;
11616;SDS011;5864;52.998;9.068;2022-10-31T02:10:10;30.37;;;20.47;;
11616;SDS011;5864;52.998;9.068;2022-10-31T02:12:38;35.57;;;20.97;;
11616;SDS011;5864;52.998;9.068;2022-10-31T02:15:06;30.40;;;19.77;;
11616;SDS011;5864;52.998;9.068;2022-10-31T02:17:34;28.77;;;19.40;;
11616;SDS011;5864;52.998;9.068;2022-10-31T02:20:05;28.23;;;19.40;;
11616;SDS011;5864;52.998;9.068;2022-10-31T02:22:45;33.47;;;20.40;;
11616;SDS011;5864;52.998;9.068;2022-10-31T02:25:40;27.13;;;19.00;;
11616;SDS011;5864;52.998;9.068;2022-10-31T02:28:22;30.30;;;19.27;;
11616;SDS011;5864;52.998;9.068;2022-10-31T02:31:03;25.73;;;18.27;;
11616;SDS011;5864;52.998;9.068;2022-10-31T02:33:43;28.50;;;19.80;;
11616;SDS011;5864;52.998;9.068;2022-10-31T02:36:16;26.70;;;18.37;;
11616;SDS011;5864;52.998;9.068;2022-10-31T02:38:51;26.57;;;19.43;;
11616;SDS011;5864;52.998;9.068;2022-10-31T02:41:29;28.87;;;19.80;;
11616;SDS011;5864;52.998;9.068;2022-10-31T02:44:04;27.40;;;18.93;;
11616;SDS011;5864;52.998;9.068;2022-10-31T02:46:37;29.80;;;19.53;;
11616;SDS011;5864;52.998;9.068;2022-10-31T02:49:12;33.37;;;18.60;;
11616;SDS011;5864;52.998;9.068;2022-10-31T02:51:48;26.10;;;18.20;;
11616;SDS011;5864;52.998;9.068;2022-10-31T02:54:19;23.77;;;17.30;;
11616;SDS011;5864;52.998;9.068;2022-10-31T02:56:50;28.33;;;17.70;;
11616;SDS011;5864;52.998;9.068;2022-10-31T02:59:21;31.33;;;19.10;;
11616;SDS011;5864;52.998;9.068;2022-10-31T03:07:54;28.93;;;18.30;;
11616;SDS011;5864;52.998;9.068;2022-10-31T03:10:29;27.20;;;18.37;;
11616;SDS011;5864;52.998;9.068;2022-10-31T03:13:05;27.83;;;18.40;;
11616;SDS011;5864;52.998;9.068;2022-10-31T03:15:36;28.27;;;17.93;;
11616;SDS011;5864;52.998;9.068;2022-10-31T03:18:07;27.57;;;18.77;;
11616;SDS011;5864;52.998;9.068;2022-10-31T03:20:37;29.33;;;18.77;;
11616;SDS011;5864;52.998;9.068;2022-10-31T03:23:08;27.00;;;17.73;;
11616;SDS011;5864;52.998;9.068;2022-10-31T03:25:38;23.73;;;17.60;;
11616;SDS011;5864;52.998;9.068;2022-10-31T03:28:07;26.20;;;17.60;;
11616;SDS011;5864;52.998;9.068;2022-10-31T03:30:38;23.87;;;17.50;;
11616;SDS011;5864;52.998;9.068;2022-10-31T03:33:10;24.70;;;17.10;;
11616;SDS011;5864;52.998;9.068;2022-10-31T03:35:41;25.80;;;16.20;;
11616;SDS011;5864;52.998;9.068;2022-10-31T03:38:12;23.17;;;15.33;;
11616;SDS011;5864;52.998;9.068;2022-10-31T03:40:41;24.37;;;16.73;;
11616;SDS011;5864;52.998;9.068;2022-10-31T03:43:12;25.00;;;17.00;;
11616;SDS011;5864;52.998;9.068;2022-10-31T03:45:43;23.87;;;16.53;;
11616;SDS011;5864;52.998;9.068;2022-10-31T03:48:14;24.30;;;16.63;;
11616;SDS011;5864;52.998;9.068;2022-10-31T03:50:45;26.03;;;16.93;;
11616;SDS011;5864;52.998;9.068;2022-10-31T03:53:20;22.80;;;15.07;;
11616;SDS011;5864;52.998;9.068;2022-10-31T03:55:52;21.40;;;14.80;;
11616;SDS011;5864;52.998;9.068;2022-10-31T03:58:25;22.40;;;15.33;;
11616;SDS011;5864;52.998;9.068;2022-10-31T04:00:56;22.40;;;16.13;;
11616;SDS011;5864;52.998;9.068;2022-10-31T04:03:29;26.97;;;16.77;;
11616;SDS011;5864;52.998;9.068;2022-10-31T04:05:59;26.20;;;16.37;;
11616;SDS011;5864;52.998;9.068;2022-10-31T04:08:31;29.37;;;17.83;;
11616;SDS011;5864;52.998;9.068;2022-10-31T04:11:02;26.63;;;17.93;;
11616;SDS011;5864;52.998;9.068;2022-10-31T04:13:31;27.33;;;18.10;;
11616;SDS011;5864;52.998;9.068;2022-10-31T04:16:00;30.23;;;18.73;;
11616;SDS011;5864;52.998;9.068;2022-10-31T04:18:29;26.40;;;18.33;;
11616;SDS011;5864;52.998;9.068;2022-10-31T04:21:00;27.77;;;19.27;;
11616;SDS011;5864;52.998;9.068;2022-10-31T04:23:29;26.27;;;16.73;;
11616;SDS011;5864;52.998;9.068;2022-10-31T04:25:57;19.47;;;15.70;;
11616;SDS011;5864;52.998;9.068;2022-10-31T04:28:24;17.50;;;14.67;;
11616;SDS011;5864;52.998;9.068;2022-10-31T04:30:53;17.13;;;14.47;;
11616;SDS011;5864;52.998;9.068;2022-10-31T04:33:20;15.27;;;13.47;;
11616;SDS011;5864;52.998;9.068;2022-10-31T04:35:49;21.47;;;13.97;;
11616;SDS011;5864;52.998;9.068;2022-10-31T04:38:16;23.23;;;15.87;;
11616;SDS011;5864;52.998;9.068;2022-10-31T04:40:44;19.87;;;15.17;;
11616;SDS011;5864;52.998;9.068;2022-10-31T04:43:11;20.13;;;16.17;;
11616;SDS011;5864;52.998;9.068;2022-10-31T04:45:39;19.43;;;15.40;;
11616;SDS011;5864;52.998;9.068;2022-10-31T04:48:06;18.97;;;15.03;;
11616;SDS011;5864;52.998;9.068;2022-10-31T04:50:33;20.70;;;15.83;;
11616;SDS011;5864;52.998;9.068;2022-10-31T04:53:02;21.30;;;16.20;;
11616;SDS011;5864;52.998;9.068;2022-10-31T04:55:29;22.50;;;16.30;;
11616;SDS011;5864;52.998;9.068;2022-10-31T04:57:56;22.33;;;16.67;;
11616;SDS011;5864;52.998;9.068;2022-10-31T05:00:24;23.47;;;16.20;;
11616;SDS011;5864;52.998;9.068;2022-10-31T05:02:52;24.33;;;17.90;;
11616;SDS011;5864;52.998;9.068;2022-10-31T05:05:22;23.60;;;17.10;;
11616;SDS011;5864;52.998;9.068;2022-10-31T05:07:51;23.43;;;17.43;;
11616;SDS011;5864;52.998;9.068;2022-10-31T05:10:21;23.00;;;16.57;;
11616;SDS011;5864;52.998;9.068;2022-10-31T05:12:50;23.80;;;17.97;;
11616;SDS011;5864;52.998;9.068;2022-10-31T05:15:18;26.43;;;19.30;;
11616;SDS011;5864;52.998;9.068;2022-10-31T05:17:46;23.13;;;17.77;;
11616;SDS011;5864;52.998;9.068;2022-10-31T05:20:14;25.40;;;17.43;;
11616;SDS011;5864;52.998;9.068;2022-10-31T05:22:43;23.10;;;18.20;;
11616;SDS011;5864;52.998;9.068;2022-10-31T05:25:10;24.90;;;18.33;;
11616;SDS011;5864;52.998;9.068;2022-10-31T05:27:39;24.13;;;18.40;;
11616;SDS011;5864;52.998;9.068;2022-10-31T05:30:07;21.33;;;17.20;;
11616;SDS011;5864;52.998;9.068;2022-10-31T05:32:36;21.80;;;17.90;;
11616;SDS011;5864;52.998;9.068;2022-10-31T05:35:05;23.43;;;17.50;;
11616;SDS011;5864;52.998;9.068;2022-10-31T05:37:33;23.77;;;17.70;;
11616;SDS011;5864;52.998;9.068;2022-10-31T05:40:01;22.33;;;16.63;;
11616;SDS011;5864;52.998;9.068;2022-10-31T05:42:29;23.20;;;16.27;;
11616;SDS011;5864;52.998;9.068;2022-10-31T05:44:58;19.67;;;16.73;;
11616;SDS011;5864;52.998;9.068;2022-10-31T05:47:25;17.07;;;14.33;;
11616;SDS011;5864;52.998;9.068;2022-10-31T05:49:52;15.93;;;13.83;;
11616;SDS011;5864;52.998;9.068;2022-10-31T05:52:20;17.90;;;12.37;;
11616;SDS011;5864;52.998;9.068;2022-10-31T05:54:47;16.00;;;12.63;;
11616;SDS011;5864;52.998;9.068;2022-10-31T05:57:14;12.13;;;10.93;;
11616;SDS011;5864;52.998;9.068;2022-10-31T05:59:41;12.37;;;11.27;;
11616;SDS011;5864;52.998;9.068;2022-10-31T06:02:11;12.70;;;11.37;;
11616;SDS011;5864;52.998;9.068;2022-10-31T06:04:39;12.40;;;11.10;;
11616;SDS011;5864;52.998;9.068;2022-10-31T06:07:06;12.97;;;11.70;;
11616;SDS011;5864;52.998;9.068;2022-10-31T06:09:33;12.50;;;11.30;;
11616;SDS011;5864;52.998;9.068;2022-10-31T06:12:01;12.27;;;11.17;;
11616;SDS011;5864;52.998;9.068;2022-10-31T06:14:28;12.97;;;11.23;;
11616;SDS011;5864;52.998;9.068;2022-10-31T06:16:55;13.70;;;10.57;;
11616;SDS011;5864;52.998;9.068;2022-10-31T06:19:24;11.20;;;10.07;;
11616;SDS011;5864;52.998;9.068;2022-10-31T06:21:51;12.03;;;10.83;;
11616;SDS011;5864;52.998;9.068;2022-10-31T06:24:19;11.23;;;10.13;;
11616;SDS011;5864;52.998;9.068;2022-10-31T06:26:46;11.10;;;10.10;;
11616;SDS011;5864;52.998;9.068;2022-10-31T06:29:13;11.37;;;10.37;;
11616;SDS011;5864;52.998;9.068;2022-10-31T06:31:41;11.63;;;10.60;;
11616;SDS011;5864;52.998;9.068;2022-10-31T06:34:08;38.03;;;13.63;;
11616;SDS011;5864;52.998;9.068;2022-10-31T06:36:37;12.50;;;11.30;;
11616;SDS011;5864;52.998;9.068;2022-10-31T06:39:04;12.53;;;11.23;;
11616;SDS011;5864;52.998;9.068;2022-10-31T06:41:31;11.70;;;10.70;;
11616;SDS011;5864;52.998;9.068;2022-10-31T06:43:59;11.13;;;10.13;;
11616;SDS011;5864;52.998;9.068;2022-10-31T06:46:26;13.57;;;10.73;;
11616;SDS011;5864;52.998;9.068;2022-10-31T06:48:53;14.60;;;11.60;;
11616;SDS011;5864;52.998;9.068;2022-10-31T06:51:20;14.73;;;11.03;;
11616;SDS011;5864;52.998;9.068;2022-10-31T06:53:49;27.10;;;13.43;;
11616;SDS011;5864;52.998;9.068;2022-10-31T06:56:16;13.47;;;12.17;;
11616;SDS011;5864;52.998;9.068;2022-10-31T06:58:44;13.33;;;11.23;;
11616;SDS011;5864;52.998;9.068;2022-10-31T07:01:11;13.00;;;11.70;;
11616;SDS011;5864;52.998;9.068;2022-10-31T07:03:38;13.60;;;12.20;;
11616;SDS011;5864;52.998;9.068;2022-10-31T07:06:05;12.63;;;11.43;;
11616;SDS011;5864;52.998;9.068;2022-10-31T07:08:33;12.60;;;11.37;;
11616;SDS011;5864;52.998;9.068;2022-10-31T07:11:01;12.90;;;11.60;;
11616;SDS011;5864;52.998;9.068;2022-10-31T07:13:29;13.47;;;11.57;;
11616;SDS011;5864;52.998;9.068;2022-10-31T07:15:59;11.43;;;10.33;;
11616;SDS011;5864;52.998;9.068;2022-10-31T07:18:27;10.93;;;9.90;;
11616;SDS011;5864;52.998;9.068;2022-10-31T07:20:54;10.53;;;9.53;;
11616;SDS011;5864;52.998;9.068;2022-10-31T07:23:22;10.33;;;9.37;;
11616;SDS011;5864;52.998;9.068;2022-10-31T07:25:53;11.13;;;10.03;;
11616;SDS011;5864;52.998;9.068;2022-10-31T07:28:23;10.93;;;9.87;;
11616;SDS011;5864;52.998;9.068;2022-10-31T07:30:50;10.60;;;9.57;;
11616;SDS011;5864;52.998;9.068;2022-10-31T07:33:18;10.50;;;9.50;;
11616;SDS011;5864;52.998;9.068;2022-10-31T07:35:45;10.63;;;9.63;;
11616;SDS011;5864;52.998;9.068;2022-10-31T07:38:13;10.80;;;9.80;;
11616;SDS011;5864;52.998;9.068;2022-10-31T07:40:41;12.20;;;11.00;;
11616;SDS011;5864;52.998;9.068;2022-10-31T07:43:09;11.50;;;10.30;;
11616;SDS011;5864;52.998;9.068;2022-10-31T07:45:39;11.43;;;10.33;;
11616;SDS011;5864;52.998;9.068;2022-10-31T07:48:06;13.60;;;11.40;;
11616;SDS011;5864;52.998;9.068;2022-10-31T07:50:33;12.83;;;11.53;;
11616;SDS011;5864;52.998;9.068;2022-10-31T07:53:02;12.13;;;11.03;;
11616;SDS011;5864;52.998;9.068;2022-10-31T07:55:30;22.37;;;11.53;;
11616;SDS011;5864;52.998;9.068;2022-10-31T07:57:58;14.90;;;10.40;;
11616;SDS011;5864;52.998;9.068;2022-10-31T08:00:26;11.10;;;10.00;;
11616;SDS011;5864;52.998;9.068;2022-10-31T08:02:59;12.33;;;10.67;;
11616;SDS011;5864;52.998;9.068;2022-10-31T08:05:27;26.97;;;11.47;;
11616;SDS011;5864;52.998;9.068;2022-10-31T08:07:55;11.10;;;10.10;;
11616;SDS011;5864;52.998;9.068;2022-10-31T08:10:23;12.37;;;11.17;;
11616;SDS011;5864;52.998;9.068;2022-10-31T08:12:57;20.53;;;11.20;;
11616;SDS011;5864;52.998;9.068;2022-10-31T08:15:25;11.50;;;10.33;;
11616;SDS011;5864;52.998;9.068;2022-10-31T08:17:53;15.13;;;11.17;;
11616;SDS011;5864;52.998;9.068;2022-10-31T08:20:22;33.37;;;12.43;;
11616;SDS011;5864;52.998;9.068;2022-10-31T08:22:55;17.97;;;11.97;;
11616;SDS011;5864;52.998;9.068;2022-10-31T08:25:23;11.80;;;10.63;;
11616;SDS011;5864;52.998;9.068;2022-10-31T08:27:52;13.50;;;10.87;;
11616;SDS011;5864;52.998;9.068;2022-10-31T08:30:20;11.90;;;10.77;;
11616;SDS011;5864;52.998;9.068;2022-10-31T08:32:56;41.43;;;11.33;;
11616;SDS011;5864;52.998;9.068;2022-10-31T08:35:25;13.43;;;10.43;;
11616;SDS011;5864;52.998;9.068;2022-10-31T08:37:53;11.60;;;10.40;;
11616;SDS011;5864;52.998;9.068;2022-10-31T08:40:21;13.63;;;10.40;;
11616;SDS011;5864;52.998;9.068;2022-10-31T08:42:54;11.30;;;9.90;;
11616;SDS011;5864;52.998;9.068;2022-10-31T08:45:23;16.53;;;11.00;;
11616;SDS011;5864;52.998;9.068;2022-10-31T08:47:50;27.90;;;12.77;;
11616;SDS011;5864;52.998;9.068;2022-10-31T08:50:18;12.03;;;10.83;;
11616;SDS011;5864;52.998;9.068;2022-10-31T08:52:47;17.90;;;11.30;;
11616;SDS011;5864;52.998;9.068;2022-10-31T08:55:14;28.13;;;11.83;;
11616;SDS011;5864;52.998;9.068;2022-10-31T08:57:42;14.30;;;11.07;;
11616;SDS011;5864;52.998;9.068;2022-10-31T09:00:10;12.30;;;11.10;;
11616;SDS011;5864;52.998;9.068;2022-10-31T09:02:38;14.57;;;11.37;;
11616;SDS011;5864;52.998;9.068;2022-10-31T09:05:06;12.60;;;11.30;;
11616;SDS011;5864;52.998;9.068;2022-10-31T09:07:33;29.90;;;11.67;;
11616;SDS011;5864;52.998;9.068;2022-10-31T09:10:02;11.93;;;10.70;;
11616;SDS011;5864;52.998;9.068;2022-10-31T09:12:30;12.50;;;11.23;;
11616;SDS011;5864;52.998;9.068;2022-10-31T09:14:57;13.90;;;11.53;;
11616;SDS011;5864;52.998;9.068;2022-10-31T09:17:26;15.93;;;12.30;;
11616;SDS011;5864;52.998;9.068;2022-10-31T09:19:54;14.40;;;12.37;;
11616;SDS011;5864;52.998;9.068;2022-10-31T09:22:22;13.77;;;12.37;;
11616;SDS011;5864;52.998;9.068;2022-10-31T09:24:50;14.10;;;12.70;;
11616;SDS011;5864;52.998;9.068;2022-10-31T09:27:18;30.00;;;14.03;;
11616;SDS011;5864;52.998;9.068;2022-10-31T09:29:45;19.73;;;13.17;;
11616;SDS011;5864;52.998;9.068;2022-10-31T09:32:13;14.83;;;12.77;;
11616;SDS011;5864;52.998;9.068;2022-10-31T09:34:40;15.10;;;12.63;;
11616;SDS011;5864;52.998;9.068;2022-10-31T09:37:07;18.27;;;13.47;;
11616;SDS011;5864;52.998;9.068;2022-10-31T09:39:34;17.07;;;15.27;;
11616;SDS011;5864;52.998;9.068;2022-10-31T09:42:07;16.23;;;14.13;;
11616;SDS011;5864;52.998;9.068;2022-10-31T09:44:49;18.73;;;16.07;;
11616;SDS011;5864;52.998;9.068;2022-10-31T09:47:22;17.10;;;15.23;;
11616;SDS011;5864;52.998;9.068;2022-10-31T09:50:00;17.13;;;15.23;;
11616;SDS011;5864;52.998;9.068;2022-10-31T09:52:39;16.43;;;14.33;;
11616;SDS011;5864;52.998;9.068;2022-10-31T09:55:13;21.83;;;16.67;;
11616;SDS011;5864;52.998;9.068;2022-10-31T09:57:43;17.67;;;14.50;;
11616;SDS011;5864;52.998;9.068;2022-10-31T10:00:16;18.70;;;16.60;;
11616;SDS011;5864;52.998;9.068;2022-10-31T10:02:47;19.87;;;16.83;;
11616;SDS011;5864;52.998;9.068;2022-10-31T10:05:18;19.13;;;16.30;;
11616;SDS011;5864;52.998;9.068;2022-10-31T10:07:51;18.73;;;16.27;;
11616;SDS011;5864;52.998;9.068;2022-10-31T10:10:25;17.40;;;15.53;;
11616;SDS011;5864;52.998;9.068;2022-10-31T10:13:05;19.63;;;15.73;;
11616;SDS011;5864;52.998;9.068;2022-10-31T10:15:59;18.47;;;15.00;;
11616;SDS011;5864;52.998;9.068;2022-10-31T10:18:38;29.77;;;17.00;;
11616;SDS011;5864;52.998;9.068;2022-10-31T10:21:18;20.37;;;17.07;;
11616;SDS011;5864;52.998;9.068;2022-10-31T10:23:59;33.10;;;17.57;;
11616;SDS011;5864;52.998;9.068;2022-10-31T10:26:36;24.43;;;18.23;;
11616;SDS011;5864;52.998;9.068;2022-10-31T10:29:11;24.73;;;18.47;;
11616;SDS011;5864;52.998;9.068;2022-10-31T10:31:48;22.27;;;18.03;;
11616;SDS011;5864;52.998;9.068;2022-10-31T10:34:18;21.17;;;18.33;;
11616;SDS011;5864;52.998;9.068;2022-10-31T10:36:52;33.00;;;20.63;;
11616;SDS011;5864;52.998;9.068;2022-10-31T10:39:25;39.40;;;20.40;;
11616;SDS011;5864;52.998;9.068;2022-10-31T10:41:57;22.53;;;18.60;;
11616;SDS011;5864;52.998;9.068;2022-10-31T10:44:43;30.40;;;20.13;;
11616;SDS011;5864;52.998;9.068;2022-10-31T10:47:33;53.47;;;23.30;;
11616;SDS011;5864;52.998;9.068;2022-10-31T10:50:08;40.63;;;21.73;;
11616;SDS011;5864;52.998;9.068;2022-10-31T10:52:43;43.07;;;23.27;;
11616;SDS011;5864;52.998;9.068;2022-10-31T10:55:22;40.80;;;24.43;;
11616;SDS011;5864;52.998;9.068;2022-10-31T10:57:56;31.13;;;23.80;;
11616;SDS011;5864;52.998;9.068;2022-10-31T11:00:27;33.33;;;25.40;;
11616;SDS011;5864;52.998;9.068;2022-10-31T11:02:58;32.37;;;24.80;;
11616;SDS011;5864;52.998;9.068;2022-10-31T11:05:28;41.47;;;26.27;;
11616;SDS011;5864;52.998;9.068;2022-10-31T11:08:00;39.43;;;26.43;;
11616;SDS011;5864;52.998;9.068;2022-10-31T11:10:28;47.20;;;28.17;;
11616;SDS011;5864;52.998;9.068;2022-10-31T11:13:00;40.53;;;27.53;;
11616;SDS011;5864;52.998;9.068;2022-10-31T11:15:35;39.50;;;27.73;;
11616;SDS011;5864;52.998;9.068;2022-10-31T11:18:15;40.73;;;29.13;;
11616;SDS011;5864;52.998;9.068;2022-10-31T11:20:50;43.40;;;28.60;;
11616;SDS011;5864;52.998;9.068;2022-10-31T11:23:19;39.50;;;27.53;;
11616;SDS011;5864;52.998;9.068;2022-10-31T11:25:48;41.93;;;26.93;;
11616;SDS011;5864;52.998;9.068;2022-10-31T11:28:17;39.63;;;26.60;;
11616;SDS011;5864;52.998;9.068;2022-10-31T11:30:46;37.40;;;26.23;;
11616;SDS011;5864;52.998;9.068;2022-10-31T11:33:17;43.37;;;28.83;;
11616;SDS011;5864;52.998;9.068;2022-10-31T11:35:47;41.00;;;28.37;;
11616;SDS011;5864;52.998;9.068;2022-10-31T11:38:17;36.20;;;25.27;;
11616;SDS011;5864;52.998;9.068;2022-10-31T11:40:53;38.70;;;25.73;;
11616;SDS011;5864;52.998;9.068;2022-10-31T11:43:22;39.40;;;27.03;;
11616;SDS011;5864;52.998;9.068;2022-10-31T11:45:50;37.17;;;25.73;;
11616;SDS011;5864;52.998;9.068;2022-10-31T11:48:19;36.77;;;26.97;;
11616;SDS011;5864;52.998;9.068;2022-10-31T11:50:50;38.30;;;26.60;;
11616;SDS011;5864;52.998;9.068;2022-10-31T11:53:19;37.73;;;25.03;;
11616;SDS011;5864;52.998;9.068;2022-10-31T11:55:59;35.03;;;24.90;;
11616;SDS011;5864;52.998;9.068;2022-10-31T11:58:30;37.30;;;24.83;;
11616;SDS011;5864;52.998;9.068;2022-10-31T12:00:57;42.10;;;26.33;;
11616;SDS011;5864;52.998;9.068;2022-10-31T12:03:33;38.20;;;26.13;;
11616;SDS011;5864;52.998;9.068;2022-10-31T12:06:12;37.30;;;25.47;;
11616;SDS011;5864;52.998;9.068;2022-10-31T12:08:43;42.03;;;26.57;;
11616;SDS011;5864;52.998;9.068;2022-10-31T12:11:14;40.67;;;27.43;;
11616;SDS011;5864;52.998;9.068;2022-10-31T12:14:05;38.90;;;27.70;;
11616;SDS011;5864;52.998;9.068;2022-10-31T12:16:45;50.33;;;30.70;;
11616;SDS011;5864;52.998;9.068;2022-10-31T12:19:20;47.90;;;31.07;;
11616;SDS011;5864;52.998;9.068;2022-10-31T12:21:59;49.00;;;29.70;;
11616;SDS011;5864;52.998;9.068;2022-10-31T12:27:58;47.67;;;30.60;;
11616;SDS011;5864;52.998;9.068;2022-10-31T12:30:36;48.07;;;29.27;;
11616;SDS011;5864;52.998;9.068;2022-10-31T12:33:21;43.17;;;28.63;;
11616;SDS011;5864;52.998;9.068;2022-10-31T12:36:02;44.70;;;28.57;;
11616;SDS011;5864;52.998;9.068;2022-10-31T12:38:48;43.57;;;27.30;;
11616;SDS011;5864;52.998;9.068;2022-10-31T12:41:29;38.90;;;26.07;;
11616;SDS011;5864;52.998;9.068;2022-10-31T12:44:04;40.13;;;25.00;;
11616;SDS011;5864;52.998;9.068;2022-10-31T12:52:25;34.93;;;23.27;;
11616;SDS011;5864;52.998;9.068;2022-10-31T12:55:08;31.03;;;22.13;;
11616;SDS011;5864;52.998;9.068;2022-10-31T12:57:44;37.83;;;24.20;;
11616;SDS011;5864;52.998;9.068;2022-10-31T13:00:15;36.60;;;23.57;;
11616;SDS011;5864;52.998;9.068;2022-10-31T13:02:44;39.17;;;24.53;;
11616;SDS011;5864;52.998;9.068;2022-10-31T13:05:18;36.20;;;24.77;;
11616;SDS011;5864;52.998;9.068;2022-10-31T13:07:54;40.30;;;25.03;;
11616;SDS011;5864;52.998;9.068;2022-10-31T13:10:25;33.53;;;21.77;;
11616;SDS011;5864;52.998;9.068;2022-10-31T13:12:58;35.00;;;24.77;;
11616;SDS011;5864;52.998;9.068;2022-10-31T13:15:33;33.33;;;22.93;;
11616;SDS011;5864;52.998;9.068;2022-10-31T13:18:10;34.83;;;23.03;;
11616;SDS011;5864;52.998;9.068;2022-10-31T13:20:45;36.57;;;22.77;;
11616;SDS011;5864;52.998;9.068;2022-10-31T13:23:16;36.13;;;23.97;;
11616;SDS011;5864;52.998;9.068;2022-10-31T13:25:50;36.70;;;24.20;;
11616;SDS011;5864;52.998;9.068;2022-10-31T13:28:23;39.63;;;25.13;;
11616;SDS011;5864;52.998;9.068;2022-10-31T13:30:54;36.63;;;24.23;;
11616;SDS011;5864;52.998;9.068;2022-10-31T13:33:23;37.30;;;24.23;;
11616;SDS011;5864;52.998;9.068;2022-10-31T13:36:06;34.80;;;23.40;;
11616;SDS011;5864;52.998;9.068;2022-10-31T13:38:44;33.73;;;22.60;;
11616;SDS011;5864;52.998;9.068;2022-10-31T13:41:22;41.37;;;23.97;;
11616;SDS011;5864;52.998;9.068;2022-10-31T13:44:00;33.07;;;22.33;;
11616;SDS011;5864;52.998;9.068;2022-10-31T13:46:36;32.57;;;20.77;;
11616;SDS011;5864;52.998;9.068;2022-10-31T13:49:19;38.70;;;22.40;;
11616;SDS011;5864;52.998;9.068;2022-10-31T13:51:51;33.77;;;20.73;;
11616;SDS011;5864;52.998;9.068;2022-10-31T13:54:21;33.37;;;21.80;;
11616;SDS011;5864;52.998;9.068;2022-10-31T13:56:50;38.67;;;22.63;;
11616;SDS011;5864;52.998;9.068;2022-10-31T13:59:19;34.23;;;22.80;;
11616;SDS011;5864;52.998;9.068;2022-10-31T14:01:50;35.87;;;21.83;;
11616;SDS011;5864;52.998;9.068;2022-10-31T14:04:20;32.00;;;22.17;;
11616;SDS011;5864;52.998;9.068;2022-10-31T14:06:52;33.77;;;22.33;;
11616;SDS011;5864;52.998;9.068;2022-10-31T14:09:29;36.13;;;23.87;;
11616;SDS011;5864;52.998;9.068;2022-10-31T14:11:59;36.07;;;21.90;;
11616;SDS011;5864;52.998;9.068;2022-10-31T14:14:32;34.30;;;22.50;;
11616;SDS011;5864;52.998;9.068;2022-10-31T14:17:12;37.63;;;22.80;;
11616;SDS011;5864;52.998;9.068;2022-10-31T14:19:55;37.33;;;23.43;;
11616;SDS011;5864;52.998;9.068;2022-10-31T14:22:28;36.13;;;22.83;;
11616;SDS011;5864;52.998;9.068;2022-10-31T14:24:58;34.13;;;21.77;;
11616;SDS011;5864;52.998;9.068;2022-10-31T14:30:19;41.77;;;24.33;;
11616;SDS011;5864;52.998;9.068;2022-10-31T14:32:49;40.97;;;24.00;;
11616;SDS011;5864;52.998;9.068;2022-10-31T14:35:20;37.23;;;24.17;;
11616;SDS011;5864;52.998;9.068;2022-10-31T14:38:02;36.63;;;23.30;;
11616;SDS011;5864;52.998;9.068;2022-10-31T14:40:47;34.57;;;22.13;;
11616;SDS011;5864;52.998;9.068;2022-10-31T14:43:28;36.27;;;21.97;;
11616;SDS011;5864;52.998;9.068;2022-10-31T14:46:06;35.60;;;22.10;;
11616;SDS011;5864;52.998;9.068;2022-10-31T14:48:45;36.23;;;22.30;;
11616;SDS011;5864;52.998;9.068;2022-10-31T14:51:21;38.70;;;23.80;;
11616;SDS011;5864;52.998;9.068;2022-10-31T14:53:50;38.00;;;23.23;;
11616;SDS011;5864;52.998;9.068;2022-10-31T14:56:23;37.33;;;22.63;;
11616;SDS011;5864;52.998;9.068;2022-10-31T14:58:53;40.70;;;23.30;;
11616;SDS011;5864;52.998;9.068;2022-10-31T15:01:24;39.17;;;23.10;;
11616;SDS011;5864;52.998;9.068;2022-10-31T15:03:55;34.57;;;22.73;;
11616;SDS011;5864;52.998;9.068;2022-10-31T15:06:27;32.73;;;22.03;;
11616;SDS011;5864;52.998;9.068;2022-10-31T15:09:04;36.60;;;21.23;;
11616;SDS011;5864;52.998;9.068;2022-10-31T15:11:36;35.43;;;20.63;;
11616;SDS011;5864;52.998;9.068;2022-10-31T15:14:05;33.93;;;22.53;;
11616;SDS011;5864;52.998;9.068;2022-10-31T15:16:48;33.63;;;20.60;;
11616;SDS011;5864;52.998;9.068;2022-10-31T15:19:16;32.97;;;21.20;;